createdAt,value
2024-01-21T00:01:22.343Z,3.25
2024-01-21T00:03:50.174Z,3.30
2024-01-21T00:06:27.712Z,3.45
2024-01-21T00:08:59.389Z,3.13
2024-01-21T00:11:26.172Z,4.00
2024-01-21T00:13:52.792Z,3.25
2024-01-21T00:16:19.464Z,3.25
2024-01-21T00:18:46.242Z,3.03
2024-01-21T00:21:13.852Z,3.60
2024-01-21T00:23:41.027Z,3.17
2024-01-21T00:26:10.655Z,3.15
2024-01-21T00:28:37.164Z,3.10
2024-01-21T00:31:10.117Z,3.03
2024-01-21T00:33:36.793Z,2.90
2024-01-21T00:36:13.580Z,2.80
2024-01-21T00:38:47.251Z,3.05
2024-01-21T00:41:14.935Z,2.90
2024-01-21T00:43:42.950Z,3.05
2024-01-21T00:46:17.564Z,3.50
2024-01-21T00:48:47.251Z,2.92
2024-01-21T00:51:13.946Z,2.50
2024-01-21T00:53:40.715Z,2.60
2024-01-21T00:56:08.277Z,2.28
2024-01-21T00:58:34.869Z,2.73
2024-01-21T01:01:01.500Z,2.17
2024-01-21T01:03:28.129Z,2.65
2024-01-21T01:05:54.677Z,2.38
2024-01-21T01:08:24.231Z,2.92
2024-01-21T01:10:50.923Z,2.63
2024-01-21T01:13:17.727Z,2.35
2024-01-21T01:15:44.477Z,2.08
2024-01-21T01:18:11.346Z,1.85
2024-01-21T01:20:37.936Z,2.15
2024-01-21T01:23:05.511Z,2.17
2024-01-21T01:25:34.583Z,2.30
2024-01-21T01:28:01.414Z,2.00
2024-01-21T01:30:55.502Z,1.80
2024-01-21T01:33:22.469Z,1.38
2024-01-21T01:35:49.276Z,1.20
2024-01-21T01:38:15.825Z,1.75
2024-01-21T01:40:42.506Z,1.58
2024-01-21T01:43:09.095Z,1.52
2024-01-21T01:45:35.788Z,1.75
2024-01-21T01:48:04.614Z,1.27
2024-01-21T01:50:33.884Z,1.75
2024-01-21T01:53:01.076Z,1.23
2024-01-21T01:55:42.153Z,1.23
2024-01-21T01:58:08.738Z,1.38
2024-01-21T02:00:35.410Z,1.70
2024-01-21T02:03:03.593Z,1.08
2024-01-21T02:05:30.175Z,0.77
2024-01-21T02:07:57.063Z,1.23
2024-01-21T02:10:23.849Z,1.08
2024-01-21T02:12:55.060Z,1.00
2024-01-21T02:15:23.854Z,0.95
2024-01-21T02:17:52.395Z,1.48
2024-01-21T02:20:21.170Z,0.85
2024-01-21T02:22:48.513Z,0.60
2024-01-21T02:25:39.973Z,1.27
2024-01-21T02:28:15.068Z,0.80
2024-01-21T02:30:47.834Z,0.85
2024-01-21T02:33:18.679Z,0.98
2024-01-21T02:35:47.549Z,0.52
2024-01-21T02:38:16.295Z,0.70
2024-01-21T02:40:42.833Z,0.85
2024-01-21T02:43:18.064Z,1.40
2024-01-21T02:45:48.604Z,0.75
2024-01-21T02:51:15.779Z,1.37
2024-01-21T02:53:43.353Z,1.17
2024-01-21T02:56:10.382Z,1.17
2024-01-21T02:58:36.995Z,0.90
2024-01-21T03:01:07.330Z,0.55
2024-01-21T03:03:35.505Z,1.17
2024-01-21T03:06:03.058Z,0.82
2024-01-21T03:08:29.606Z,0.77
2024-01-21T03:10:56.309Z,1.52
2024-01-21T03:13:49.855Z,0.90
2024-01-21T03:16:16.435Z,1.30
2024-01-21T03:18:43.309Z,0.88
2024-01-21T03:21:09.990Z,1.10
2024-01-21T03:23:36.610Z,1.05
2024-01-21T03:26:30.789Z,0.80
2024-01-21T03:31:57.024Z,0.88
2024-01-21T03:34:23.655Z,0.85
2024-01-21T03:36:50.506Z,1.30
2024-01-21T03:39:17.274Z,0.77
2024-01-21T03:41:43.858Z,1.03
2024-01-21T03:44:10.705Z,1.02
2024-01-21T03:46:37.520Z,1.20
2024-01-21T03:49:04.735Z,0.90
2024-01-21T03:51:33.509Z,0.85
2024-01-21T03:54:00.255Z,1.13
2024-01-21T03:56:52.253Z,0.85
2024-01-21T03:59:25.416Z,0.73
2024-01-21T04:02:00.358Z,1.42
2024-01-21T04:04:27.859Z,1.10
2024-01-21T04:07:04.390Z,1.00
2024-01-21T04:09:35.052Z,1.10
2024-01-21T04:12:14.642Z,1.77
2024-01-21T04:14:41.584Z,1.48
2024-01-21T04:17:08.306Z,0.85
2024-01-21T04:19:34.957Z,1.10
2024-01-21T04:22:04.608Z,0.93
2024-01-21T04:24:31.426Z,0.85
2024-01-21T04:26:58.190Z,0.60
2024-01-21T04:29:25.524Z,0.88
2024-01-21T04:31:58.069Z,0.87
2024-01-21T04:34:24.989Z,0.80
2024-01-21T04:36:51.878Z,0.93
2024-01-21T04:39:45.736Z,0.80
2024-01-21T04:42:13.146Z,0.80
2024-01-21T04:44:49.395Z,0.70
2024-01-21T04:47:16.074Z,0.70
2024-01-21T04:49:47.993Z,0.80
2024-01-21T04:52:15.160Z,1.10
2024-01-21T04:54:41.656Z,1.00
2024-01-21T04:57:08.389Z,0.87
2024-01-21T04:59:34.892Z,1.13
2024-01-21T05:02:35.009Z,1.52
2024-01-21T05:05:21.733Z,0.85
2024-01-21T05:07:48.291Z,0.98
2024-01-21T05:10:14.812Z,0.63
2024-01-21T05:12:41.615Z,0.80
2024-01-21T05:15:08.865Z,0.88
2024-01-21T05:20:16.365Z,0.90
2024-01-21T05:22:49.477Z,0.70
2024-01-21T05:25:24.893Z,1.05
2024-01-21T05:31:49.101Z,1.17
2024-01-21T05:34:35.907Z,0.98
2024-01-21T05:37:02.748Z,1.20
2024-01-21T05:42:25.321Z,1.15
2024-01-21T05:44:56.101Z,1.05
2024-01-21T05:47:40.689Z,1.00
2024-01-21T05:50:08.041Z,1.47
2024-01-21T05:52:41.396Z,1.05
2024-01-21T05:55:09.032Z,1.33
2024-01-21T05:58:05.003Z,1.20
2024-01-21T06:00:59.396Z,0.93
2024-01-21T06:03:26.588Z,1.23
2024-01-21T06:08:34.309Z,0.98
2024-01-21T06:11:14.314Z,1.42
2024-01-21T06:13:40.856Z,1.15
2024-01-21T06:16:07.409Z,1.20
2024-01-21T06:18:34.492Z,1.77
2024-01-21T06:21:20.965Z,1.80
2024-01-21T06:23:53.105Z,1.40
2024-01-21T06:26:24.532Z,1.63
2024-01-21T06:28:51.946Z,1.97
2024-01-21T06:31:21.373Z,1.45
2024-01-21T06:33:51.262Z,1.45
2024-01-21T06:36:18.237Z,1.73
2024-01-21T06:38:48.546Z,1.63
2024-01-21T06:41:15.849Z,1.73
2024-01-21T06:43:42.634Z,1.90
2024-01-21T06:46:13.431Z,1.80
2024-01-21T06:48:40.133Z,1.15
2024-01-21T06:51:12.052Z,1.33
2024-01-21T06:53:39.245Z,1.27
2024-01-21T06:56:08.460Z,1.80
2024-01-21T06:59:06.891Z,1.83
2024-01-21T07:01:57.526Z,1.75
2024-01-21T07:04:25.097Z,1.75
2024-01-21T07:06:53.898Z,1.57
2024-01-21T07:09:20.692Z,1.73
2024-01-21T07:11:47.690Z,2.00
2024-01-21T07:14:15.589Z,1.58
2024-01-21T07:16:42.442Z,1.65
2024-01-21T07:19:09.094Z,2.00
2024-01-21T07:21:35.739Z,1.85
2024-01-21T07:24:02.336Z,1.63
2024-01-21T07:26:29.363Z,0.60
2024-01-21T07:28:57.062Z,1.90
2024-01-21T07:31:23.855Z,2.47
2024-01-21T07:33:50.786Z,2.13
2024-01-21T07:36:20.550Z,1.75
2024-01-21T07:38:47.081Z,1.98
2024-01-21T07:41:38.870Z,1.90
2024-01-21T07:45:10.041Z,1.97
2024-01-21T07:47:36.701Z,1.35
2024-01-21T07:50:08.582Z,2.38
2024-01-21T07:52:35.136Z,1.63
2024-01-21T07:55:03.388Z,2.08
2024-01-21T07:57:29.980Z,2.03
2024-01-21T07:59:56.893Z,1.70
2024-01-21T08:02:28.333Z,1.88
2024-01-21T08:04:55.688Z,1.75
2024-01-21T08:07:23.720Z,1.38
2024-01-21T08:09:51.068Z,1.83
2024-01-21T08:12:18.427Z,2.40
2024-01-21T08:14:45.638Z,1.80
2024-01-21T08:17:12.198Z,1.60
2024-01-21T08:19:39.841Z,1.73
2024-01-21T08:22:10.121Z,1.10
2024-01-21T08:24:39.209Z,1.58
2024-01-21T08:27:07.029Z,1.83
2024-01-21T08:29:33.924Z,1.83
2024-01-21T08:32:04.063Z,2.00
2024-01-21T08:34:31.809Z,1.90
2024-01-21T08:36:59.912Z,1.90
2024-01-21T08:39:26.787Z,1.65
2024-01-21T08:41:56.104Z,2.17
2024-01-21T08:44:27.456Z,2.05
2024-01-21T08:46:54.108Z,1.70
2024-01-21T08:49:26.760Z,1.45
2024-01-21T08:51:54.754Z,1.20
2024-01-21T08:54:40.343Z,2.28
2024-01-21T08:57:08.770Z,1.45
2024-01-21T08:59:36.307Z,1.83
2024-01-21T09:02:03.192Z,2.03
2024-01-21T09:04:29.947Z,1.77
2024-01-21T09:06:56.676Z,1.58
2024-01-21T09:09:33.437Z,1.52
2024-01-21T09:12:08.330Z,1.20
2024-01-21T09:14:44.472Z,1.38
2024-01-21T09:17:11.068Z,1.38
2024-01-21T09:22:19.140Z,1.15
2024-01-21T09:24:56.232Z,1.70
2024-01-21T09:27:38.525Z,1.50
2024-01-21T09:30:07.166Z,1.63
2024-01-21T09:32:34.014Z,1.60
2024-01-21T09:35:29.389Z,1.75
2024-01-21T09:37:55.960Z,1.60
2024-01-21T09:40:27.159Z,1.63
2024-01-21T09:43:03.694Z,1.25
2024-01-21T09:45:44.081Z,1.80
2024-01-21T09:51:03.316Z,1.73
2024-01-21T09:53:32.728Z,1.98
2024-01-21T09:57:15.907Z,1.85
2024-01-21T09:59:42.581Z,1.30
2024-01-21T10:02:26.196Z,1.60
2024-01-21T10:04:55.300Z,1.93
2024-01-21T10:10:39.619Z,2.17
2024-01-21T10:13:08.656Z,2.33
2024-01-21T10:15:42.416Z,1.90
2024-01-21T10:18:09.331Z,2.50
2024-01-21T10:20:39.063Z,1.77
2024-01-21T10:23:13.118Z,2.10
2024-01-21T10:25:46.447Z,2.08
2024-01-21T10:28:17.613Z,2.17
2024-01-21T10:30:46.170Z,2.20
2024-01-21T10:33:18.295Z,2.13
2024-01-21T10:35:47.256Z,1.17
2024-01-21T10:38:32.272Z,2.35
2024-01-21T10:41:14.229Z,2.03
2024-01-21T10:43:47.814Z,2.57
2024-01-21T10:46:19.502Z,2.03
2024-01-21T10:48:49.548Z,2.10
2024-01-21T10:51:20.284Z,2.20
2024-01-21T10:53:50.390Z,2.20
2024-01-21T10:56:30.465Z,1.97
2024-01-21T10:59:02.135Z,2.47
2024-01-21T11:01:29.167Z,2.70
2024-01-21T11:04:13.193Z,2.15
2024-01-21T11:06:45.985Z,2.55
2024-01-21T11:09:18.103Z,2.13
2024-01-21T11:12:09.515Z,2.60
2024-01-21T11:14:42.927Z,2.20
2024-01-21T11:17:11.882Z,2.40
2024-01-21T11:20:15.856Z,2.50
2024-01-21T11:22:46.694Z,2.13
2024-01-21T11:25:37.921Z,1.85
2024-01-21T11:28:26.016Z,1.65
2024-01-21T11:30:54.719Z,2.53
2024-01-21T11:33:24.706Z,2.30
2024-01-21T11:35:51.636Z,2.10
2024-01-21T11:38:18.076Z,2.60
2024-01-21T11:40:45.649Z,2.40
2024-01-21T11:43:12.849Z,2.75
2024-01-21T11:45:40.188Z,2.08
2024-01-21T11:48:11.681Z,1.73
2024-01-21T11:51:04.639Z,1.98
2024-01-21T11:53:34.109Z,2.40
2024-01-21T11:56:02.251Z,2.45
2024-01-21T11:58:31.022Z,2.03
2024-01-21T12:01:05.110Z,2.23
2024-01-21T12:03:31.855Z,2.47
2024-01-21T12:05:59.960Z,2.33
2024-01-21T12:08:26.680Z,2.33
2024-01-21T12:10:53.502Z,2.40
2024-01-21T12:13:21.812Z,2.03
2024-01-21T12:15:52.475Z,2.95
2024-01-21T12:18:19.953Z,2.55
2024-01-21T12:21:15.406Z,2.75
2024-01-21T12:23:43.851Z,3.03
2024-01-21T12:26:16.021Z,2.40
2024-01-21T12:28:58.909Z,2.67
2024-01-21T12:31:30.633Z,2.72
2024-01-21T12:33:58.978Z,2.90
2024-01-21T12:36:26.152Z,2.28
2024-01-21T12:38:54.738Z,2.57
2024-01-21T12:41:23.028Z,3.10
2024-01-21T12:43:51.213Z,1.85
2024-01-21T12:46:21.616Z,2.42
2024-01-21T12:48:49.931Z,2.88
2024-01-21T12:51:20.283Z,2.43
2024-01-21T12:53:50.065Z,2.78
2024-01-21T12:56:20.312Z,3.15
2024-01-21T12:58:47.207Z,2.75
2024-01-21T13:01:14.202Z,1.92
2024-01-21T13:03:41.823Z,2.70
2024-01-21T13:06:09.668Z,2.72
2024-01-21T13:08:39.343Z,1.55
2024-01-21T13:11:06.272Z,2.53
2024-01-21T13:13:33.036Z,2.30
2024-01-21T13:16:03.267Z,3.33
2024-01-21T13:18:31.177Z,2.33
2024-01-21T13:21:01.365Z,3.25
2024-01-21T13:23:30.768Z,2.83
2024-01-21T13:26:00.393Z,2.83
2024-01-21T13:28:27.069Z,2.83
2024-01-21T13:30:59.651Z,2.33
2024-01-21T13:33:31.849Z,2.08
2024-01-21T13:36:00.408Z,2.17
2024-01-21T13:38:31.062Z,2.38
2024-01-21T13:41:02.736Z,3.10
2024-01-21T13:43:32.064Z,2.90
2024-01-21T13:46:02.070Z,2.50
2024-01-21T13:48:35.298Z,2.65
2024-01-21T13:51:03.787Z,2.95
2024-01-21T13:53:30.328Z,2.70
2024-01-21T13:55:56.798Z,2.70
2024-01-21T13:58:25.686Z,3.20
2024-01-21T14:00:53.662Z,2.80
2024-01-21T14:03:23.887Z,2.28
2024-01-21T14:05:50.458Z,2.70
2024-01-21T14:08:17.205Z,3.08
2024-01-21T14:10:44.682Z,2.97
2024-01-21T14:13:11.810Z,3.20
2024-01-21T14:15:38.330Z,3.35
2024-01-21T14:18:06.436Z,3.13
2024-01-21T14:20:33.385Z,3.38
2024-01-21T14:23:03.324Z,2.67
2024-01-21T14:25:41.024Z,3.58
2024-01-21T14:28:10.480Z,3.17
2024-01-21T14:30:37.385Z,2.47
2024-01-21T14:33:06.572Z,2.42
2024-01-21T14:35:33.774Z,3.17
2024-01-21T14:38:03.474Z,2.95
2024-01-21T14:40:30.030Z,2.13
2024-01-21T14:42:58.279Z,2.03
2024-01-21T14:45:25.278Z,3.05
2024-01-21T14:47:52.258Z,2.38
2024-01-21T14:53:27.957Z,2.45
2024-01-21T14:56:02.008Z,3.07
2024-01-21T14:58:36.174Z,3.45
2024-01-21T15:01:02.832Z,1.75
2024-01-21T15:03:31.343Z,2.58
2024-01-21T15:05:58.105Z,3.45
2024-01-21T15:08:25.039Z,3.40
2024-01-21T15:11:01.603Z,3.38
2024-01-21T15:13:31.494Z,3.97
2024-01-21T15:16:02.665Z,3.53
2024-01-21T15:21:06.503Z,3.23
2024-01-21T15:23:51.378Z,2.60
2024-01-21T15:33:01.446Z,3.17
2024-01-21T15:38:14.352Z,2.95
2024-01-21T15:40:48.120Z,2.90
2024-01-21T15:45:58.902Z,2.90
2024-01-21T15:48:29.549Z,3.40
2024-01-21T15:51:04.502Z,4.30
2024-01-21T15:53:41.519Z,3.05
2024-01-21T15:56:15.416Z,2.83
2024-01-21T16:02:29.841Z,3.70
2024-01-21T16:05:32.350Z,2.97
2024-01-21T16:08:01.988Z,3.38
2024-01-21T16:10:30.756Z,3.28
2024-01-21T16:13:27.670Z,3.00
2024-01-21T16:16:12.206Z,3.47
2024-01-21T16:18:46.017Z,3.90
2024-01-21T16:21:13.958Z,3.40
2024-01-21T16:23:47.028Z,3.60
2024-01-21T16:26:24.920Z,3.08
2024-01-21T16:28:53.398Z,3.03
2024-01-21T16:31:29.377Z,3.55
2024-01-21T16:33:57.218Z,3.30
2024-01-21T16:36:31.292Z,3.33
2024-01-21T16:39:17.088Z,3.60
2024-01-21T16:41:46.034Z,3.13
2024-01-21T16:44:13.370Z,3.28
2024-01-21T16:46:49.456Z,2.33
2024-01-21T16:49:18.862Z,3.55
2024-01-21T16:52:07.241Z,2.88
2024-01-21T16:54:34.536Z,2.70
2024-01-21T16:57:01.320Z,2.53
2024-01-21T16:59:29.810Z,3.38
2024-01-21T17:02:02.334Z,3.88
2024-01-21T17:04:29.580Z,3.03
2024-01-21T17:06:58.871Z,4.00
2024-01-21T17:09:30.005Z,3.38
2024-01-21T17:11:58.655Z,3.42
2024-01-21T17:14:25.256Z,3.20
2024-01-21T17:16:52.105Z,3.28
2024-01-21T17:19:19.701Z,4.40
2024-01-21T17:21:49.796Z,3.60
2024-01-21T17:24:23.037Z,4.20
2024-01-21T17:26:51.169Z,3.80
2024-01-21T17:29:17.941Z,3.70
2024-01-21T17:31:44.574Z,3.93
2024-01-21T17:34:11.283Z,3.83
2024-01-21T17:36:38.145Z,2.90
2024-01-21T17:39:05.288Z,3.25
2024-01-21T17:41:34.463Z,3.75
2024-01-21T17:44:04.976Z,2.33
2024-01-21T17:46:31.492Z,2.85
2024-01-21T17:49:06.427Z,3.17
2024-01-21T17:51:33.064Z,3.08
2024-01-21T17:54:23.882Z,2.90
2024-01-21T17:56:50.514Z,2.90
2024-01-21T17:59:18.223Z,3.30
2024-01-21T18:01:45.215Z,3.40
2024-01-21T18:04:11.939Z,3.88
2024-01-21T18:06:39.952Z,3.92
2024-01-21T18:09:07.505Z,3.57
2024-01-21T18:11:35.172Z,3.65
2024-01-21T18:14:02.344Z,3.35
2024-01-21T18:16:29.099Z,3.53
2024-01-21T18:22:33.098Z,3.10
2024-01-21T18:25:21.869Z,3.28
2024-01-21T18:28:16.836Z,2.63
2024-01-21T18:30:59.856Z,3.35
2024-01-21T18:33:30.405Z,3.13
2024-01-21T18:35:57.918Z,3.30
2024-01-21T18:38:24.864Z,3.38
2024-01-21T18:40:57.361Z,3.08
2024-01-21T18:43:26.089Z,3.75
2024-01-21T18:45:58.643Z,3.75
2024-01-21T18:48:34.968Z,3.07
2024-01-21T18:51:04.599Z,2.95
2024-01-21T18:53:37.862Z,3.33
2024-01-21T18:56:04.905Z,3.08
2024-01-21T18:58:33.974Z,2.95
2024-01-21T19:01:01.001Z,2.93
2024-01-21T19:03:30.499Z,3.10
2024-01-21T19:05:57.166Z,3.72
2024-01-21T19:08:25.108Z,3.33
2024-01-21T19:10:52.021Z,3.40
2024-01-21T19:13:19.067Z,3.30
2024-01-21T19:15:50.530Z,3.15
2024-01-21T19:18:23.639Z,3.20
2024-01-21T19:21:08.394Z,3.72
2024-01-21T19:24:21.209Z,2.67
2024-01-21T19:26:30.736Z,3.47
2024-01-21T19:29:00.369Z,3.33
2024-01-21T19:31:36.696Z,3.70
2024-01-21T19:34:03.382Z,3.38
2024-01-21T19:36:31.148Z,2.95
2024-01-21T19:39:20.238Z,3.67
2024-01-21T19:42:12.080Z,2.83
2024-01-21T19:44:38.890Z,2.47
2024-01-21T19:47:06.404Z,2.50
2024-01-21T19:49:35.171Z,2.70
2024-01-21T19:52:08.028Z,2.43
2024-01-21T19:57:29.234Z,3.08
2024-01-21T19:59:55.869Z,2.70
2024-01-21T20:02:23.756Z,2.63
2024-01-21T20:07:39.111Z,2.92
2024-01-21T20:10:07.247Z,2.30
2024-01-21T20:12:40.437Z,2.75
2024-01-21T20:15:08.969Z,2.20
2024-01-21T20:17:36.088Z,3.30
2024-01-21T20:26:09.980Z,2.47
2024-01-21T20:28:37.720Z,2.13
2024-01-21T20:31:10.844Z,3.40
2024-01-21T20:33:40.712Z,2.53
2024-01-21T20:36:18.956Z,2.65
2024-01-21T20:38:46.794Z,2.17
2024-01-21T20:48:30.864Z,1.83
2024-01-21T20:50:59.917Z,2.15
2024-01-21T20:53:30.291Z,1.67
2024-01-21T20:56:16.607Z,2.30
2024-01-21T21:06:52.289Z,1.58
2024-01-21T21:10:16.170Z,1.60
2024-01-21T21:18:26.434Z,0.90
2024-01-21T21:20:58.167Z,1.73
2024-01-21T21:23:26.953Z,2.17
2024-01-21T21:25:53.454Z,1.58
2024-01-21T21:28:23.197Z,2.00
2024-01-21T21:34:15.084Z,2.50
2024-01-21T21:36:53.595Z,2.00
2024-01-21T21:39:52.513Z,2.15
2024-01-21T21:42:22.059Z,2.30
2024-01-21T21:47:41.535Z,1.50
2024-01-21T21:50:48.743Z,2.13
2024-01-21T21:53:45.699Z,1.85
2024-01-21T21:56:13.225Z,2.37
2024-01-21T21:58:43.077Z,2.22
2024-01-21T22:04:09.498Z,1.92
2024-01-21T22:06:43.986Z,2.00
2024-01-21T22:09:17.965Z,2.03
2024-01-21T22:15:24.164Z,1.75
2024-01-21T22:18:08.331Z,1.90
2024-01-21T22:20:39.020Z,2.28
2024-01-21T22:27:02.081Z,1.75
2024-01-21T22:33:18.990Z,1.15
2024-01-21T22:35:52.949Z,1.23
2024-01-21T22:42:18.886Z,1.95
2024-01-21T22:47:56.550Z,1.88
2024-01-21T22:53:50.657Z,1.87
2024-01-21T22:56:34.004Z,1.40
2024-01-21T22:59:05.086Z,1.45
2024-01-21T23:01:36.996Z,1.90
2024-01-21T23:04:49.903Z,1.70
2024-01-21T23:07:30.378Z,1.67
2024-01-21T23:10:02.941Z,1.80
2024-01-21T23:12:29.807Z,1.38
2024-01-21T23:16:15.321Z,1.70
2024-01-21T23:24:22.288Z,1.70
2024-01-21T23:27:40.501Z,2.35
2024-01-21T23:30:10.453Z,2.92
2024-01-21T23:40:36.608Z,0.55
2024-01-21T23:48:48.377Z,1.17
2024-01-21T23:49:41.712Z,1.38
